sensor_id;sensor_type;location;lat;lon;timestamp;pressure;altitude;pressure_sealevel;temperature;humidity
23473;BME280;11909;52.516;13.564;2022-08-27T00:00:37;100510.31;;;19.28;100.00
23473;BME280;11909;52.516;13.564;2022-08-27T00:03:04;100509.38;;;19.24;100.00
23473;BME280;11909;52.516;13.564;2022-08-27T00:05:31;100509.84;;;19.26;100.00
23473;BME280;11909;52.516;13.564;2022-08-27T00:07:58;100513.09;;;19.28;100.00
23473;BME280;11909;52.516;13.564;2022-08-27T00:10:26;100507.06;;;19.26;100.00
23473;BME280;11909;52.516;13.564;2022-08-27T00:12:53;100500.00;;;19.29;100.00
23473;BME280;11909;52.516;13.564;2022-08-27T00:15:21;100494.78;;;19.27;100.00
23473;BME280;11909;52.516;13.564;2022-08-27T00:17:48;100490.03;;;19.28;100.00
23473;BME280;11909;52.516;13.564;2022-08-27T00:20:18;100489.22;;;19.27;100.00
23473;BME280;11909;52.516;13.564;2022-08-27T00:22:45;100488.41;;;19.27;100.00
23473;BME280;11909;52.516;13.564;2022-08-27T00:25:12;100482.94;;;19.30;100.00
23473;BME280;11909;52.516;13.564;2022-08-27T00:27:39;100486.56;;;19.31;100.00
23473;BME280;11909;52.516;13.564;2022-08-27T00:30:08;100472.66;;;19.31;100.00
23473;BME280;11909;52.516;13.564;2022-08-27T00:32:37;100469.97;;;19.34;100.00
23473;BME280;11909;52.516;13.564;2022-08-27T00:35:05;100464.53;;;19.38;100.00
23473;BME280;11909;52.516;13.564;2022-08-27T00:37:34;100481.69;;;19.40;100.00
23473;BME280;11909;52.516;13.564;2022-08-27T00:40:01;100470.91;;;19.39;100.00
23473;BME280;11909;52.516;13.564;2022-08-27T00:42:28;100476.13;;;19.40;100.00
23473;BME280;11909;52.516;13.564;2022-08-27T00:44:55;100466.50;;;19.38;100.00
23473;BME280;11909;52.516;13.564;2022-08-27T00:47:26;100462.91;;;19.37;100.00
23473;BME280;11909;52.516;13.564;2022-08-27T00:49:55;100460.94;;;19.38;100.00
23473;BME280;11909;52.516;13.564;2022-08-27T00:52:27;100472.75;;;19.34;100.00
23473;BME280;11909;52.516;13.564;2022-08-27T00:54:59;100460.38;;;19.32;100.00
23473;BME280;11909;52.516;13.564;2022-08-27T00:57:28;100460.00;;;19.33;100.00
23473;BME280;11909;52.516;13.564;2022-08-27T00:59:55;100463.59;;;19.34;100.00
23473;BME280;11909;52.516;13.564;2022-08-27T01:02:21;100476.81;;;19.37;100.00
23473;BME280;11909;52.516;13.564;2022-08-27T01:04:55;100467.31;;;19.38;100.00
23473;BME280;11909;52.516;13.564;2022-08-27T01:07:23;100463.03;;;19.41;100.00
23473;BME280;11909;52.516;13.564;2022-08-27T01:09:52;100465.13;;;19.44;100.00
23473;BME280;11909;52.516;13.564;2022-08-27T01:12:21;100465.44;;;19.42;100.00
23473;BME280;11909;52.516;13.564;2022-08-27T01:14:48;100470.22;;;19.42;100.00
23473;BME280;11909;52.516;13.564;2022-08-27T01:17:14;100468.22;;;19.42;100.00
23473;BME280;11909;52.516;13.564;2022-08-27T01:19:44;100468.22;;;19.42;100.00
23473;BME280;11909;52.516;13.564;2022-08-27T01:22:17;100462.22;;;19.40;100.00
23473;BME280;11909;52.516;13.564;2022-08-27T01:24:50;100472.53;;;19.40;100.00
23473;BME280;11909;52.516;13.564;2022-08-27T01:27:20;100470.56;;;19.40;100.00
23473;BME280;11909;52.516;13.564;2022-08-27T01:29:47;100472.63;;;19.43;100.00
23473;BME280;11909;52.516;13.564;2022-08-27T01:32:17;100467.91;;;19.44;100.00
23473;BME280;11909;52.516;13.564;2022-08-27T01:34:44;100466.72;;;19.45;100.00
23473;BME280;11909;52.516;13.564;2022-08-27T01:37:11;100463.94;;;19.45;100.00
23473;BME280;11909;52.516;13.564;2022-08-27T01:39:39;100460.00;;;19.46;100.00
23473;BME280;11909;52.516;13.564;2022-08-27T01:42:11;100464.75;;;19.45;100.00
23473;BME280;11909;52.516;13.564;2022-08-27T01:44:45;100464.75;;;19.45;100.00
23473;BME280;11909;52.516;13.564;2022-08-27T01:47:12;100463.13;;;19.44;100.00
23473;BME280;11909;52.516;13.564;2022-08-27T01:49:39;100466.38;;;19.46;100.00
23473;BME280;11909;52.516;13.564;2022-08-27T01:52:06;100461.63;;;19.47;100.00
23473;BME280;11909;52.516;13.564;2022-08-27T01:54:32;100469.63;;;19.48;100.00
23473;BME280;11909;52.516;13.564;2022-08-27T01:56:59;100463.25;;;19.48;100.00
23473;BME280;11909;52.516;13.564;2022-08-27T01:59:27;100462.09;;;19.49;100.00
23473;BME280;11909;52.516;13.564;2022-08-27T02:01:54;100458.59;;;19.52;100.00
23473;BME280;11909;52.516;13.564;2022-08-27T02:04:21;100463.47;;;19.55;100.00
23473;BME280;11909;52.516;13.564;2022-08-27T02:06:47;100466.25;;;19.55;100.00
23473;BME280;11909;52.516;13.564;2022-08-27T02:09:14;100460.59;;;19.52;100.00
23473;BME280;11909;52.516;13.564;2022-08-27T02:11:40;100470.44;;;19.49;100.00
23473;BME280;11909;52.516;13.564;2022-08-27T02:14:07;100468.94;;;19.52;100.00
23473;BME280;11909;52.516;13.564;2022-08-27T02:16:35;100468.13;;;19.51;100.00
23473;BME280;11909;52.516;13.564;2022-08-27T02:19:01;100468.13;;;19.51;100.00
23473;BME280;11909;52.516;13.564;2022-08-27T02:21:28;100472.97;;;19.54;100.00
23473;BME280;11909;52.516;13.564;2022-08-27T02:23:55;100470.66;;;19.56;100.00
23473;BME280;11909;52.516;13.564;2022-08-27T02:26:21;100473.09;;;19.58;100.00
23473;BME280;11909;52.516;13.564;2022-08-27T02:28:48;100471.94;;;19.59;100.00
23473;BME280;11909;52.516;13.564;2022-08-27T02:31:14;100474.72;;;19.59;100.00
23473;BME280;11909;52.516;13.564;2022-08-27T02:33:43;100470.66;;;19.56;100.00
23473;BME280;11909;52.516;13.564;2022-08-27T02:36:10;100472.28;;;19.57;100.00
23473;BME280;11909;52.516;13.564;2022-08-27T02:38:38;100468.47;;;19.62;100.00
23473;BME280;11909;52.516;13.564;2022-08-27T02:41:05;100476.47;;;19.63;100.00
23473;BME280;11909;52.516;13.564;2022-08-27T02:43:31;100479.72;;;19.66;100.00
23473;BME280;11909;52.516;13.564;2022-08-27T02:45:58;100476.94;;;19.66;100.00
23473;BME280;11909;52.516;13.564;2022-08-27T02:48:25;100480.97;;;19.68;100.00
23473;BME280;11909;52.516;13.564;2022-08-27T02:50:53;100482.97;;;19.68;100.00
23473;BME280;11909;52.516;13.564;2022-08-27T02:53:20;100483.78;;;19.56;100.00
23473;BME280;11909;52.516;13.564;2022-08-27T02:55:46;100481.00;;;19.56;100.00
23473;BME280;11909;52.516;13.564;2022-08-27T02:58:13;100483.66;;;19.52;100.00
23473;BME280;11909;52.516;13.564;2022-08-27T03:00:41;100488.75;;;19.50;100.00
23473;BME280;11909;52.516;13.564;2022-08-27T03:03:08;100475.88;;;19.45;100.00
23473;BME280;11909;52.516;13.564;2022-08-27T03:05:35;100477.16;;;19.48;100.00
23473;BME280;11909;52.516;13.564;2022-08-27T03:08:03;100471.13;;;19.46;100.00
23473;BME280;11909;52.516;13.564;2022-08-27T03:10:30;100475.53;;;19.47;100.00
23473;BME280;11909;52.516;13.564;2022-08-27T03:12:56;100480.41;;;19.50;100.00
23473;BME280;11909;52.516;13.564;2022-08-27T03:15:23;100477.97;;;19.48;100.00
23473;BME280;11909;52.516;13.564;2022-08-27T03:17:49;100482.41;;;19.49;100.00
23473;BME280;11909;52.516;13.564;2022-08-27T03:20:36;100483.91;;;19.47;100.00
23473;BME280;11909;52.516;13.564;2022-08-27T03:23:06;100480.06;;;19.52;100.00
23473;BME280;11909;52.516;13.564;2022-08-27T03:25:32;100483.06;;;19.46;100.00
23473;BME280;11909;52.516;13.564;2022-08-27T03:27:59;100480.28;;;19.46;100.00
23473;BME280;11909;52.516;13.564;2022-08-27T03:30:26;100478.34;;;19.47;100.00
23473;BME280;11909;52.516;13.564;2022-08-27T03:32:52;100479.63;;;19.49;100.00
23473;BME280;11909;52.516;13.564;2022-08-27T03:35:20;100476.00;;;19.49;100.00
23473;BME280;11909;52.516;13.564;2022-08-27T03:37:47;100480.06;;;19.52;100.00
23473;BME280;11909;52.516;13.564;2022-08-27T03:40:17;100474.97;;;19.54;100.00
23473;BME280;11909;52.516;13.564;2022-08-27T03:42:44;100470.19;;;19.54;100.00
23473;BME280;11909;52.516;13.564;2022-08-27T03:45:10;100460.69;;;19.55;100.00
23473;BME280;11909;52.516;13.564;2022-08-27T03:47:37;100464.31;;;19.56;100.00
23473;BME280;11909;52.516;13.564;2022-08-27T03:50:05;100462.78;;;19.58;100.00
23473;BME280;11909;52.516;13.564;2022-08-27T03:52:33;100468.69;;;19.57;100.00
23473;BME280;11909;52.516;13.564;2022-08-27T03:55:01;100463.59;;;19.59;100.00
23473;BME280;11909;52.516;13.564;2022-08-27T03:57:30;100472.75;;;19.59;100.00
23473;BME280;11909;52.516;13.564;2022-08-27T03:59:57;100470.78;;;19.60;100.00
23473;BME280;11909;52.516;13.564;2022-08-27T04:02:23;100464.88;;;19.61;100.00
23473;BME280;11909;52.516;13.564;2022-08-27T04:04:50;100466.84;;;19.61;100.00
23473;BME280;11909;52.516;13.564;2022-08-27T04:07:16;100465.34;;;19.63;100.00
23473;BME280;11909;52.516;13.564;2022-08-27T04:09:43;100456.16;;;19.63;100.00
23473;BME280;11909;52.516;13.564;2022-08-27T04:12:09;100467.19;;;19.59;100.00
23473;BME280;11909;52.516;13.564;2022-08-27T04:14:38;100469.63;;;19.61;100.00
23473;BME280;11909;52.516;13.564;2022-08-27T04:17:04;100466.84;;;19.61;100.00
23473;BME280;11909;52.516;13.564;2022-08-27T04:19:31;100466.97;;;19.65;100.00
23473;BME280;11909;52.516;13.564;2022-08-27T04:22:00;100467.31;;;19.63;100.00
23473;BME280;11909;52.516;13.564;2022-08-27T04:24:28;100469.63;;;19.61;100.00
23473;BME280;11909;52.516;13.564;2022-08-27T04:26:54;100468.47;;;19.62;100.00
23473;BME280;11909;52.516;13.564;2022-08-27T04:29:21;100469.63;;;19.61;100.00
23473;BME280;11909;52.516;13.564;2022-08-27T04:31:49;100477.72;;;19.66;100.00
23473;BME280;11909;52.516;13.564;2022-08-27T04:34:16;100469.28;;;19.62;100.00
23473;BME280;11909;52.516;13.564;2022-08-27T04:36:42;100476.34;;;19.60;100.00
23473;BME280;11909;52.516;13.564;2022-08-27T04:39:09;100476.59;;;19.55;100.00
23473;BME280;11909;52.516;13.564;2022-08-27T04:41:36;100479.00;;;19.56;100.00
23473;BME280;11909;52.516;13.564;2022-08-27T04:44:05;100476.47;;;19.51;100.00
23473;BME280;11909;52.516;13.564;2022-08-27T04:46:36;100479.72;;;19.53;100.00
23473;BME280;11909;52.516;13.564;2022-08-27T04:49:07;100482.03;;;19.51;100.00
23473;BME280;11909;52.516;13.564;2022-08-27T04:51:34;100474.50;;;19.52;100.00
23473;BME280;11909;52.516;13.564;2022-08-27T04:54:02;100483.31;;;19.54;100.00
23473;BME280;11909;52.516;13.564;2022-08-27T04:56:29;100477.75;;;19.54;100.00
23473;BME280;11909;52.516;13.564;2022-08-27T04:58:56;100481.00;;;19.56;100.00
23473;BME280;11909;52.516;13.564;2022-08-27T05:01:24;100485.41;;;19.57;100.00
23473;BME280;11909;52.516;13.564;2022-08-27T05:03:52;100486.19;;;19.57;100.00
23473;BME280;11909;52.516;13.564;2022-08-27T05:06:21;100494.09;;;19.55;100.00
23473;BME280;11909;52.516;13.564;2022-08-27T05:08:48;100493.28;;;19.55;100.00
23473;BME280;11909;52.516;13.564;2022-08-27T05:11:17;100488.53;;;19.55;100.00
23473;BME280;11909;52.516;13.564;2022-08-27T05:13:46;100489.81;;;19.58;100.00
23473;BME280;11909;52.516;13.564;2022-08-27T05:16:14;100489.69;;;19.54;100.00
23473;BME280;11909;52.516;13.564;2022-08-27T05:18:42;100485.28;;;19.53;100.00
23473;BME280;11909;52.516;13.564;2022-08-27T05:21:12;100487.25;;;19.53;100.00
23473;BME280;11909;52.516;13.564;2022-08-27T05:23:42;100480.53;;;19.54;100.00
23473;BME280;11909;52.516;13.564;2022-08-27T05:26:08;100485.75;;;19.55;100.00
23473;BME280;11909;52.516;13.564;2022-08-27T05:28:35;100483.41;;;19.57;100.00
23473;BME280;11909;52.516;13.564;2022-08-27T05:31:03;100486.19;;;19.57;100.00
23473;BME280;11909;52.516;13.564;2022-08-27T05:33:31;100484.25;;;19.58;100.00
23473;BME280;11909;52.516;13.564;2022-08-27T05:35:58;100486.56;;;19.56;100.00
23473;BME280;11909;52.516;13.564;2022-08-27T05:38:27;100492.13;;;19.56;100.00
23473;BME280;11909;52.516;13.564;2022-08-27T05:41:03;100484.25;;;19.58;100.00
23473;BME280;11909;52.516;13.564;2022-08-27T05:43:30;100492.94;;;19.56;100.00
23473;BME280;11909;52.516;13.564;2022-08-27T05:45:57;100487.03;;;19.58;100.00
23473;BME280;11909;52.516;13.564;2022-08-27T05:48:23;100497.78;;;19.59;100.00
23473;BME280;11909;52.516;13.564;2022-08-27T05:50:50;100493.84;;;19.60;100.00
23473;BME280;11909;52.516;13.564;2022-08-27T05:53:16;100495.50;;;19.61;100.00
23473;BME280;11909;52.516;13.564;2022-08-27T05:55:44;100496.28;;;19.62;100.00
23473;BME280;11909;52.516;13.564;2022-08-27T05:58:12;100506.03;;;19.56;100.00
23473;BME280;11909;52.516;13.564;2022-08-27T06:00:53;100494.91;;;19.56;100.00
23473;BME280;11909;52.516;13.564;2022-08-27T06:03:31;100498.50;;;19.56;100.00
23473;BME280;11909;52.516;13.564;2022-08-27T06:06:01;100505.34;;;19.59;100.00
23473;BME280;11909;52.516;13.564;2022-08-27T06:08:28;100497.00;;;19.59;100.00
23473;BME280;11909;52.516;13.564;2022-08-27T06:10:55;100499.91;;;19.62;100.00
23473;BME280;11909;52.516;13.564;2022-08-27T06:13:23;100500.38;;;19.65;100.00
23473;BME280;11909;52.516;13.564;2022-08-27T06:15:49;100507.09;;;19.63;100.00
23473;BME280;11909;52.516;13.564;2022-08-27T06:18:16;100503.94;;;19.65;100.00
23473;BME280;11909;52.516;13.564;2022-08-27T06:20:42;100509.19;;;19.67;100.00
23473;BME280;11909;52.516;13.564;2022-08-27T06:23:09;100509.19;;;19.67;100.00
23473;BME280;11909;52.516;13.564;2022-08-27T06:25:39;100511.59;;;19.68;100.00
23473;BME280;11909;52.516;13.564;2022-08-27T06:28:05;100517.88;;;19.65;100.00
23473;BME280;11909;52.516;13.564;2022-08-27T06:30:34;100515.09;;;19.65;100.00
23473;BME280;11909;52.516;13.564;2022-08-27T06:33:00;100525.06;;;19.66;100.00
23473;BME280;11909;52.516;13.564;2022-08-27T06:35:26;100513.91;;;19.66;100.00
23473;BME280;11909;52.516;13.564;2022-08-27T06:37:53;100518.00;;;19.69;100.00
23473;BME280;11909;52.516;13.564;2022-08-27T06:40:20;100526.34;;;19.69;100.00
23473;BME280;11909;52.516;13.564;2022-08-27T06:42:46;100514.84;;;19.70;100.00
23473;BME280;11909;52.516;13.564;2022-08-27T06:45:13;100520.06;;;19.72;100.00
23473;BME280;11909;52.516;13.564;2022-08-27T06:47:41;100522.03;;;19.71;100.00
23473;BME280;11909;52.516;13.564;2022-08-27T06:50:08;100520.06;;;19.72;100.00
23473;BME280;11909;52.516;13.564;2022-08-27T06:52:34;100526.94;;;19.74;100.00
23473;BME280;11909;52.516;13.564;2022-08-27T06:55:01;100517.41;;;19.75;100.00
23473;BME280;11909;52.516;13.564;2022-08-27T06:57:28;100525.75;;;19.75;100.00
23473;BME280;11909;52.516;13.564;2022-08-27T06:59:54;100529.34;;;19.76;100.00
23473;BME280;11909;52.516;13.564;2022-08-27T07:02:21;100529.34;;;19.76;100.00
23473;BME280;11909;52.516;13.564;2022-08-27T07:04:51;100534.44;;;19.74;100.00
23473;BME280;11909;52.516;13.564;2022-08-27T07:07:17;100539.22;;;19.73;100.00
23473;BME280;11909;52.516;13.564;2022-08-27T07:09:44;100547.56;;;19.73;100.00
23473;BME280;11909;52.516;13.564;2022-08-27T07:12:11;100538.84;;;19.75;100.00
23473;BME280;11909;52.516;13.564;2022-08-27T07:14:37;100537.22;;;19.74;100.00
23473;BME280;11909;52.516;13.564;2022-08-27T07:17:05;100546.75;;;19.73;100.00
23473;BME280;11909;52.516;13.564;2022-08-27T07:19:32;100542.00;;;19.73;100.00
23473;BME280;11909;52.516;13.564;2022-08-27T07:22:01;100543.63;;;19.74;100.00
23473;BME280;11909;52.516;13.564;2022-08-27T07:24:28;100544.78;;;19.73;100.00
23473;BME280;11909;52.516;13.564;2022-08-27T07:26:55;100538.06;;;19.74;100.00
23473;BME280;11909;52.516;13.564;2022-08-27T07:29:21;100540.84;;;19.74;100.00
23473;BME280;11909;52.516;13.564;2022-08-27T07:31:48;100536.44;;;19.73;100.00
23473;BME280;11909;52.516;13.564;2022-08-27T07:34:15;100534.13;;;19.75;100.00
23473;BME280;11909;52.516;13.564;2022-08-27T07:36:41;100531.78;;;19.77;100.00
23473;BME280;11909;52.516;13.564;2022-08-27T07:39:09;100538.63;;;19.80;100.00
23473;BME280;11909;52.516;13.564;2022-08-27T07:41:38;100536.53;;;19.77;100.00
23473;BME280;11909;52.516;13.564;2022-08-27T07:44:18;100534.66;;;19.81;100.00
23473;BME280;11909;52.516;13.564;2022-08-27T07:46:51;100531.78;;;19.77;100.00
23473;BME280;11909;52.516;13.564;2022-08-27T07:49:19;100528.19;;;19.77;100.00
23473;BME280;11909;52.516;13.564;2022-08-27T07:51:47;100527.38;;;19.76;100.00
23473;BME280;11909;52.516;13.564;2022-08-27T07:54:15;100524.25;;;19.78;100.00
23473;BME280;11909;52.516;13.564;2022-08-27T07:56:42;100530.63;;;19.78;100.00
23473;BME280;11909;52.516;13.564;2022-08-27T07:59:09;100537.81;;;19.80;100.00
23473;BME280;11909;52.516;13.564;2022-08-27T08:01:35;100535.50;;;19.82;100.00
23473;BME280;11909;52.516;13.564;2022-08-27T08:04:02;100534.34;;;19.83;100.00
23473;BME280;11909;52.516;13.564;2022-08-27T08:06:29;100535.50;;;19.82;100.00
23473;BME280;11909;52.516;13.564;2022-08-27T08:08:57;100536.28;;;19.82;100.00
23473;BME280;11909;52.516;13.564;2022-08-27T08:11:26;100543.03;;;19.81;100.00
23473;BME280;11909;52.516;13.564;2022-08-27T08:13:52;100542.00;;;19.86;100.00
23473;BME280;11909;52.516;13.564;2022-08-27T08:16:22;100541.66;;;19.87;100.00
23473;BME280;11909;52.516;13.564;2022-08-27T08:18:49;100544.91;;;19.89;100.00
23473;BME280;11909;52.516;13.564;2022-08-27T08:21:16;100552.31;;;19.85;100.00
23473;BME280;11909;52.516;13.564;2022-08-27T08:23:42;100546.41;;;19.87;100.00
23473;BME280;11909;52.516;13.564;2022-08-27T08:26:10;100562.41;;;19.90;100.00
23473;BME280;11909;52.516;13.564;2022-08-27T08:28:39;100549.31;;;19.90;100.00
23473;BME280;11909;52.516;13.564;2022-08-27T08:31:06;100543.41;;;19.92;100.00
23473;BME280;11909;52.516;13.564;2022-08-27T08:33:33;100539.56;;;19.97;100.00
23473;BME280;11909;52.516;13.564;2022-08-27T08:36:02;100538.41;;;19.98;100.00
23473;BME280;11909;52.516;13.564;2022-08-27T08:38:29;100532.03;;;19.97;100.00
23473;BME280;11909;52.516;13.564;2022-08-27T08:40:56;100524.47;;;19.98;100.00
23473;BME280;11909;52.516;13.564;2022-08-27T08:43:28;100509.75;;;19.97;100.00
23473;BME280;11909;52.516;13.564;2022-08-27T08:46:00;100505.81;;;19.98;100.00
23473;BME280;11909;52.516;13.564;2022-08-27T08:48:29;100506.03;;;19.93;100.00
23473;BME280;11909;52.516;13.564;2022-08-27T08:51:02;100508.47;;;19.95;100.00
23473;BME280;11909;52.516;13.564;2022-08-27T08:53:37;100510.44;;;19.94;100.00
23473;BME280;11909;52.516;13.564;2022-08-27T08:56:08;100514.50;;;19.97;100.00
23473;BME280;11909;52.516;13.564;2022-08-27T08:58:40;100512.56;;;19.97;100.00
23473;BME280;11909;52.516;13.564;2022-08-27T09:01:13;100510.22;;;19.99;100.00
23473;BME280;11909;52.516;13.564;2022-08-27T09:03:51;100505.44;;;20.00;100.00
23473;BME280;11909;52.516;13.564;2022-08-27T09:06:22;100503.50;;;20.00;100.00
23473;BME280;11909;52.516;13.564;2022-08-27T09:08:51;100495.22;;;20.04;100.00
23473;BME280;11909;52.516;13.564;2022-08-27T09:11:24;100489.56;;;20.00;100.00
23473;BME280;11909;52.516;13.564;2022-08-27T09:13:55;100493.13;;;20.01;100.00
23473;BME280;11909;52.516;13.564;2022-08-27T09:16:25;100487.13;;;19.99;100.00
23473;BME280;11909;52.516;13.564;2022-08-27T09:18:52;100485.16;;;19.99;100.00
23473;BME280;11909;52.516;13.564;2022-08-27T09:21:28;100488.41;;;20.01;100.00
23473;BME280;11909;52.516;13.564;2022-08-27T09:24:05;100500.34;;;20.02;100.00
23473;BME280;11909;52.516;13.564;2022-08-27T09:26:35;100508.34;;;20.03;100.00
23473;BME280;11909;52.516;13.564;2022-08-27T09:29:05;100518.34;;;20.04;100.00
23473;BME280;11909;52.516;13.564;2022-08-27T09:31:53;100505.09;;;20.01;100.00
23473;BME280;11909;52.516;13.564;2022-08-27T09:34:21;100516.25;;;20.01;100.00
23473;BME280;11909;52.516;13.564;2022-08-27T09:36:58;100529.00;;;20.02;100.00
23473;BME280;11909;52.516;13.564;2022-08-27T09:39:28;100529.81;;;20.03;100.00
23473;BME280;11909;52.516;13.564;2022-08-27T09:41:57;100536.22;;;20.03;100.00
23473;BME280;11909;52.516;13.564;2022-08-27T09:44:24;100542.47;;;20.00;100.00
23473;BME280;11909;52.516;13.564;2022-08-27T09:46:54;100542.47;;;20.00;100.00
23473;BME280;11909;52.516;13.564;2022-08-27T09:49:22;100555.34;;;20.05;100.00
23473;BME280;11909;52.516;13.564;2022-08-27T09:51:49;100560.56;;;20.06;100.00
23473;BME280;11909;52.516;13.564;2022-08-27T09:54:26;100552.56;;;20.05;100.00
23473;BME280;11909;52.516;13.564;2022-08-27T09:56:54;100567.75;;;20.08;100.00
23473;BME280;11909;52.516;13.564;2022-08-27T09:59:25;100571.00;;;20.10;100.00
23473;BME280;11909;52.516;13.564;2022-08-27T10:01:55;100576.34;;;20.15;100.00
23473;BME280;11909;52.516;13.564;2022-08-27T10:04:24;100579.94;;;20.15;100.00
23473;BME280;11909;52.516;13.564;2022-08-27T10:06:51;100582.38;;;20.17;100.00
23473;BME280;11909;52.516;13.564;2022-08-27T10:09:21;100580.06;;;20.19;100.00
23473;BME280;11909;52.516;13.564;2022-08-27T10:11:57;100575.75;;;20.22;100.00
23473;BME280;11909;52.516;13.564;2022-08-27T10:14:28;100577.03;;;20.24;100.00
23473;BME280;11909;52.516;13.564;2022-08-27T10:17:08;100579.44;;;20.26;100.00
23473;BME280;11909;52.516;13.564;2022-08-27T10:19:46;100575.03;;;20.25;100.00
23473;BME280;11909;52.516;13.564;2022-08-27T10:22:27;100575.50;;;20.27;100.00
23473;BME280;11909;52.516;13.564;2022-08-27T10:25:07;100571.56;;;20.28;100.00
23473;BME280;11909;52.516;13.564;2022-08-27T10:27:46;100578.75;;;20.29;100.00
23473;BME280;11909;52.516;13.564;2022-08-27T10:30:18;100573.53;;;20.27;100.00
23473;BME280;11909;52.516;13.564;2022-08-27T10:32:59;100569.25;;;20.30;100.00
23473;BME280;11909;52.516;13.564;2022-08-27T10:35:33;100581.53;;;20.29;100.00
23473;BME280;11909;52.516;13.564;2022-08-27T10:38:10;100582.03;;;20.31;100.00
23473;BME280;11909;52.516;13.564;2022-08-27T10:40:48;100593.63;;;20.33;100.00
23473;BME280;11909;52.516;13.564;2022-08-27T10:43:29;100576.91;;;20.33;100.00
23473;BME280;11909;52.516;13.564;2022-08-27T10:46:09;100590.47;;;20.34;100.00
23473;BME280;11909;52.516;13.564;2022-08-27T10:48:48;100582.56;;;20.37;100.00
23473;BME280;11909;52.516;13.564;2022-08-27T10:51:23;100583.84;;;20.39;100.00
23473;BME280;11909;52.516;13.564;2022-08-27T10:53:56;100576.28;;;20.40;100.00
23473;BME280;11909;52.516;13.564;2022-08-27T10:56:28;100574.31;;;20.40;100.00
23473;BME280;11909;52.516;13.564;2022-08-27T10:59:12;100575.94;;;20.41;100.00
23473;BME280;11909;52.516;13.564;2022-08-27T11:01:45;100582.81;;;20.44;100.00
23473;BME280;11909;52.516;13.564;2022-08-27T11:04:20;100578.84;;;20.45;100.00
23473;BME280;11909;52.516;13.564;2022-08-27T11:06:52;100575.25;;;20.44;100.00
23473;BME280;11909;52.516;13.564;2022-08-27T11:09:36;100574.06;;;20.45;100.00
23473;BME280;11909;52.516;13.564;2022-08-27T11:12:07;100577.31;;;20.47;100.00
23473;BME280;11909;52.516;13.564;2022-08-27T11:14:37;100576.97;;;20.49;100.00
23473;BME280;11909;52.516;13.564;2022-08-27T11:17:10;100574.19;;;20.49;100.00
23473;BME280;11909;52.516;13.564;2022-08-27T11:19:45;100568.38;;;20.54;100.00
23473;BME280;11909;52.516;13.564;2022-08-27T11:22:17;100568.81;;;20.56;100.00
23473;BME280;11909;52.516;13.564;2022-08-27T11:24:48;100571.72;;;20.60;100.00
23473;BME280;11909;52.516;13.564;2022-08-27T11:27:22;100564.97;;;20.61;100.00
23473;BME280;11909;52.516;13.564;2022-08-27T11:29:54;100567.50;;;20.66;100.00
23473;BME280;11909;52.516;13.564;2022-08-27T11:32:31;100569.97;;;20.68;100.00
23473;BME280;11909;52.516;13.564;2022-08-27T11:35:06;100572.81;;;20.71;100.00
23473;BME280;11909;52.516;13.564;2022-08-27T11:40:48;100572.22;;;20.78;100.00
23473;BME280;11909;52.516;13.564;2022-08-27T11:43:19;100569.59;;;20.82;100.00
23473;BME280;11909;52.516;13.564;2022-08-27T11:45:53;100564.53;;;20.87;100.00
23473;BME280;11909;52.516;13.564;2022-08-27T11:48:22;100568.59;;;20.90;100.00
23473;BME280;11909;52.516;13.564;2022-08-27T11:50:56;100566.72;;;20.94;100.00
23473;BME280;11909;52.516;13.564;2022-08-27T11:53:27;100577.66;;;20.99;100.00
23473;BME280;11909;52.516;13.564;2022-08-27T11:55:54;100577.72;;;21.03;100.00
23473;BME280;11909;52.516;13.564;2022-08-27T11:58:28;100572.97;;;21.03;100.00
23473;BME280;11909;52.516;13.564;2022-08-27T12:00:56;100573.75;;;21.04;100.00
23473;BME280;11909;52.516;13.564;2022-08-27T12:03:28;100581.06;;;21.09;100.00
23473;BME280;11909;52.516;13.564;2022-08-27T12:06:16;100573.59;;;21.13;100.00
23473;BME280;11909;52.516;13.564;2022-08-27T12:08:43;100571.00;;;21.20;100.00
23473;BME280;11909;52.516;13.564;2022-08-27T12:11:18;100571.94;;;21.24;100.00
23473;BME280;11909;52.516;13.564;2022-08-27T12:13:52;100574.44;;;21.29;100.00
23473;BME280;11909;52.516;13.564;2022-08-27T12:16:29;100569.03;;;21.37;100.00
23473;BME280;11909;52.516;13.564;2022-08-27T12:19:19;100567.97;;;21.41;100.00
23473;BME280;11909;52.516;13.564;2022-08-27T12:22:00;100567.09;;;21.53;100.00
23473;BME280;11909;52.516;13.564;2022-08-27T12:24:40;100563.28;;;21.61;100.00
23473;BME280;11909;52.516;13.564;2022-08-27T12:27:25;100568.19;;;21.65;100.00
23473;BME280;11909;52.516;13.564;2022-08-27T12:29:55;100564.56;;;21.64;100.00
23473;BME280;11909;52.516;13.564;2022-08-27T12:32:30;100562.59;;;21.65;100.00
23473;BME280;11909;52.516;13.564;2022-08-27T12:35:01;100566.53;;;21.63;100.00
23473;BME280;11909;52.516;13.564;2022-08-27T12:37:34;100561.78;;;21.64;100.00
23473;BME280;11909;52.516;13.564;2022-08-27T12:40:06;100561.78;;;21.64;100.00
23473;BME280;11909;52.516;13.564;2022-08-27T12:42:36;100566.09;;;21.61;100.00
23473;BME280;11909;52.516;13.564;2022-08-27T12:45:04;100557.25;;;21.59;100.00